sensor_id;sensor_type;location;lat;lon;timestamp;P1;durP1;ratioP1;P2;durP2;ratioP2
21786;SDS011;11055;50.870;4.316;2023-08-17T00:01:46;6.15;;;2.38;;
21786;SDS011;11055;50.870;4.316;2023-08-17T00:04:12;2.28;;;2.08;;
21786;SDS011;11055;50.870;4.316;2023-08-17T00:06:38;4.13;;;2.35;;
21786;SDS011;11055;50.870;4.316;2023-08-17T00:09:04;2.97;;;2.28;;
21786;SDS011;11055;50.870;4.316;2023-08-17T00:11:29;4.90;;;2.90;;
21786;SDS011;11055;50.870;4.316;2023-08-17T00:13:55;2.33;;;2.13;;
21786;SDS011;11055;50.870;4.316;2023-08-17T00:16:21;2.88;;;2.00;;
21786;SDS011;11055;50.870;4.316;2023-08-17T00:18:48;3.92;;;2.40;;
21786;SDS011;11055;50.870;4.316;2023-08-17T00:21:14;2.58;;;2.25;;
21786;SDS011;11055;50.870;4.316;2023-08-17T00:23:40;2.92;;;2.17;;
21786;SDS011;11055;50.870;4.316;2023-08-17T00:26:05;3.95;;;2.58;;
21786;SDS011;11055;50.870;4.316;2023-08-17T00:28:31;4.90;;;2.58;;
21786;SDS011;11055;50.870;4.316;2023-08-17T00:30:57;6.40;;;2.42;;
21786;SDS011;11055;50.870;4.316;2023-08-17T00:33:24;4.15;;;2.75;;
21786;SDS011;11055;50.870;4.316;2023-08-17T00:35:50;3.78;;;2.50;;
21786;SDS011;11055;50.870;4.316;2023-08-17T00:38:16;4.15;;;2.50;;
21786;SDS011;11055;50.870;4.316;2023-08-17T00:40:41;2.92;;;2.50;;
21786;SDS011;11055;50.870;4.316;2023-08-17T00:43:07;4.95;;;2.83;;
21786;SDS011;11055;50.870;4.316;2023-08-17T00:45:33;3.30;;;2.47;;
21786;SDS011;11055;50.870;4.316;2023-08-17T00:48:00;8.63;;;3.15;;
21786;SDS011;11055;50.870;4.316;2023-08-17T00:50:25;4.50;;;2.67;;
21786;SDS011;11055;50.870;4.316;2023-08-17T00:52:53;5.63;;;3.25;;
21786;SDS011;11055;50.870;4.316;2023-08-17T00:55:19;4.82;;;2.90;;
21786;SDS011;11055;50.870;4.316;2023-08-17T00:57:46;4.55;;;2.75;;
21786;SDS011;11055;50.870;4.316;2023-08-17T01:00:12;9.23;;;3.13;;
21786;SDS011;11055;50.870;4.316;2023-08-17T01:02:39;4.47;;;3.25;;
21786;SDS011;11055;50.870;4.316;2023-08-17T01:05:06;6.13;;;3.38;;
21786;SDS011;11055;50.870;4.316;2023-08-17T01:07:32;5.43;;;3.05;;
21786;SDS011;11055;50.870;4.316;2023-08-17T01:09:58;4.10;;;3.03;;
21786;SDS011;11055;50.870;4.316;2023-08-17T01:15:03;3.53;;;3.22;;
21786;SDS011;11055;50.870;4.316;2023-08-17T01:20:23;3.38;;;3.03;;
21786;SDS011;11055;50.870;4.316;2023-08-17T01:22:50;5.43;;;3.20;;
21786;SDS011;11055;50.870;4.316;2023-08-17T01:25:19;6.88;;;2.63;;
21786;SDS011;11055;50.870;4.316;2023-08-17T01:27:45;3.90;;;2.70;;
21786;SDS011;11055;50.870;4.316;2023-08-17T01:30:11;3.72;;;2.95;;
21786;SDS011;11055;50.870;4.316;2023-08-17T01:38:02;3.15;;;2.75;;
21786;SDS011;11055;50.870;4.316;2023-08-17T01:40:32;6.07;;;3.35;;
21786;SDS011;11055;50.870;4.316;2023-08-17T01:42:59;5.45;;;2.92;;
21786;SDS011;11055;50.870;4.316;2023-08-17T01:45:26;4.15;;;3.15;;
21786;SDS011;11055;50.870;4.316;2023-08-17T01:47:52;4.72;;;2.85;;
21786;SDS011;11055;50.870;4.316;2023-08-17T01:50:17;4.35;;;2.85;;
21786;SDS011;11055;50.870;4.316;2023-08-17T01:52:43;4.00;;;2.83;;
21786;SDS011;11055;50.870;4.316;2023-08-17T01:55:09;4.82;;;3.10;;
21786;SDS011;11055;50.870;4.316;2023-08-17T01:57:35;3.50;;;2.75;;
21786;SDS011;11055;50.870;4.316;2023-08-17T02:00:01;5.60;;;2.53;;
21786;SDS011;11055;50.870;4.316;2023-08-17T02:02:29;5.18;;;2.88;;
21786;SDS011;11055;50.870;4.316;2023-08-17T02:04:55;5.72;;;2.90;;
21786;SDS011;11055;50.870;4.316;2023-08-17T02:07:21;4.97;;;2.70;;
21786;SDS011;11055;50.870;4.316;2023-08-17T02:09:46;4.95;;;2.58;;
21786;SDS011;11055;50.870;4.316;2023-08-17T02:12:12;5.63;;;2.80;;
21786;SDS011;11055;50.870;4.316;2023-08-17T02:14:38;5.70;;;2.80;;
21786;SDS011;11055;50.870;4.316;2023-08-17T02:17:03;4.20;;;2.60;;
21786;SDS011;11055;50.870;4.316;2023-08-17T02:19:30;4.65;;;2.88;;
21786;SDS011;11055;50.870;4.316;2023-08-17T02:21:57;5.60;;;3.00;;
21786;SDS011;11055;50.870;4.316;2023-08-17T02:24:23;4.25;;;2.80;;
21786;SDS011;11055;50.870;4.316;2023-08-17T02:26:49;3.35;;;2.88;;
21786;SDS011;11055;50.870;4.316;2023-08-17T02:29:15;5.78;;;2.75;;
21786;SDS011;11055;50.870;4.316;2023-08-17T02:31:41;5.13;;;2.97;;
21786;SDS011;11055;50.870;4.316;2023-08-17T02:34:06;6.15;;;2.75;;
21786;SDS011;11055;50.870;4.316;2023-08-17T02:36:33;3.90;;;2.85;;
21786;SDS011;11055;50.870;4.316;2023-08-17T02:38:58;2.67;;;2.38;;
21786;SDS011;11055;50.870;4.316;2023-08-17T02:41:24;4.68;;;2.78;;
21786;SDS011;11055;50.870;4.316;2023-08-17T02:43:50;5.25;;;3.05;;
21786;SDS011;11055;50.870;4.316;2023-08-17T02:46:15;7.28;;;2.72;;
21786;SDS011;11055;50.870;4.316;2023-08-17T02:48:41;8.52;;;2.80;;
21786;SDS011;11055;50.870;4.316;2023-08-17T02:51:07;4.28;;;2.85;;
21786;SDS011;11055;50.870;4.316;2023-08-17T02:53:32;7.70;;;3.13;;
21786;SDS011;11055;50.870;4.316;2023-08-17T02:55:58;5.68;;;2.70;;
21786;SDS011;11055;50.870;4.316;2023-08-17T02:58:23;5.57;;;3.20;;
21786;SDS011;11055;50.870;4.316;2023-08-17T03:00:52;6.75;;;3.08;;
21786;SDS011;11055;50.870;4.316;2023-08-17T03:03:18;6.18;;;2.83;;
21786;SDS011;11055;50.870;4.316;2023-08-17T03:05:44;7.80;;;3.17;;
21786;SDS011;11055;50.870;4.316;2023-08-17T03:08:10;5.75;;;3.17;;
21786;SDS011;11055;50.870;4.316;2023-08-17T03:10:36;7.95;;;3.53;;
21786;SDS011;11055;50.870;4.316;2023-08-17T03:13:02;5.63;;;3.00;;
21786;SDS011;11055;50.870;4.316;2023-08-17T03:15:28;8.07;;;3.22;;
21786;SDS011;11055;50.870;4.316;2023-08-17T03:17:53;4.53;;;3.10;;
21786;SDS011;11055;50.870;4.316;2023-08-17T03:20:19;7.45;;;3.22;;
21786;SDS011;11055;50.870;4.316;2023-08-17T03:22:45;3.35;;;3.03;;
21786;SDS011;11055;50.870;4.316;2023-08-17T03:25:10;5.25;;;2.78;;
21786;SDS011;11055;50.870;4.316;2023-08-17T03:27:36;4.72;;;3.05;;
21786;SDS011;11055;50.870;4.316;2023-08-17T03:30:02;5.55;;;3.67;;
21786;SDS011;11055;50.870;4.316;2023-08-17T03:32:29;6.70;;;3.17;;
21786;SDS011;11055;50.870;4.316;2023-08-17T03:34:54;5.38;;;2.88;;
21786;SDS011;11055;50.870;4.316;2023-08-17T03:37:20;5.85;;;2.97;;
21786;SDS011;11055;50.870;4.316;2023-08-17T03:39:46;6.03;;;3.08;;
21786;SDS011;11055;50.870;4.316;2023-08-17T03:42:11;4.43;;;3.53;;
21786;SDS011;11055;50.870;4.316;2023-08-17T03:44:37;6.43;;;2.92;;
21786;SDS011;11055;50.870;4.316;2023-08-17T03:47:02;4.55;;;3.00;;
21786;SDS011;11055;50.870;4.316;2023-08-17T03:49:28;5.85;;;2.90;;
21786;SDS011;11055;50.870;4.316;2023-08-17T03:51:54;8.52;;;3.42;;
21786;SDS011;11055;50.870;4.316;2023-08-17T03:54:19;5.38;;;3.22;;
21786;SDS011;11055;50.870;4.316;2023-08-17T03:56:45;5.18;;;3.28;;
21786;SDS011;11055;50.870;4.316;2023-08-17T03:59:11;4.85;;;2.95;;
21786;SDS011;11055;50.870;4.316;2023-08-17T04:01:36;5.88;;;3.20;;
21786;SDS011;11055;50.870;4.316;2023-08-17T04:04:02;9.25;;;3.30;;
21786;SDS011;11055;50.870;4.316;2023-08-17T04:06:28;4.22;;;2.83;;
21786;SDS011;11055;50.870;4.316;2023-08-17T04:08:54;5.00;;;2.80;;
21786;SDS011;11055;50.870;4.316;2023-08-17T04:11:19;8.05;;;3.03;;
21786;SDS011;11055;50.870;4.316;2023-08-17T04:13:45;4.63;;;2.70;;
21786;SDS011;11055;50.870;4.316;2023-08-17T04:16:11;7.25;;;3.22;;
21786;SDS011;11055;50.870;4.316;2023-08-17T04:18:36;4.38;;;2.88;;
21786;SDS011;11055;50.870;4.316;2023-08-17T04:21:02;4.55;;;3.25;;
21786;SDS011;11055;50.870;4.316;2023-08-17T04:23:27;6.88;;;3.42;;
21786;SDS011;11055;50.870;4.316;2023-08-17T04:25:53;5.38;;;3.13;;
21786;SDS011;11055;50.870;4.316;2023-08-17T04:28:20;4.78;;;3.20;;
21786;SDS011;11055;50.870;4.316;2023-08-17T04:30:45;6.50;;;3.22;;
21786;SDS011;11055;50.870;4.316;2023-08-17T04:33:11;5.40;;;3.88;;
21786;SDS011;11055;50.870;4.316;2023-08-17T04:35:38;8.05;;;3.67;;
21786;SDS011;11055;50.870;4.316;2023-08-17T04:38:03;4.38;;;3.03;;
21786;SDS011;11055;50.870;4.316;2023-08-17T04:40:29;5.63;;;3.25;;
21786;SDS011;11055;50.870;4.316;2023-08-17T04:42:55;10.68;;;3.30;;
21786;SDS011;11055;50.870;4.316;2023-08-17T04:45:21;5.60;;;3.08;;
21786;SDS011;11055;50.870;4.316;2023-08-17T04:47:46;7.47;;;3.40;;
21786;SDS011;11055;50.870;4.316;2023-08-17T04:50:12;4.53;;;2.92;;
21786;SDS011;11055;50.870;4.316;2023-08-17T04:52:42;6.57;;;3.63;;
21786;SDS011;11055;50.870;4.316;2023-08-17T04:55:11;6.45;;;3.08;;
21786;SDS011;11055;50.870;4.316;2023-08-17T04:57:37;8.70;;;3.22;;
21786;SDS011;11055;50.870;4.316;2023-08-17T05:00:03;7.53;;;3.28;;
21786;SDS011;11055;50.870;4.316;2023-08-17T05:02:33;5.47;;;2.92;;
21786;SDS011;11055;50.870;4.316;2023-08-17T05:04:59;8.88;;;3.08;;
21786;SDS011;11055;50.870;4.316;2023-08-17T05:07:25;5.47;;;3.58;;
21786;SDS011;11055;50.870;4.316;2023-08-17T05:09:50;5.47;;;2.95;;
21786;SDS011;11055;50.870;4.316;2023-08-17T05:12:16;5.03;;;3.30;;
21786;SDS011;11055;50.870;4.316;2023-08-17T05:14:42;3.92;;;3.25;;
21786;SDS011;11055;50.870;4.316;2023-08-17T05:17:07;7.07;;;3.13;;
21786;SDS011;11055;50.870;4.316;2023-08-17T05:19:33;6.10;;;3.33;;
21786;SDS011;11055;50.870;4.316;2023-08-17T05:21:58;5.25;;;3.22;;
21786;SDS011;11055;50.870;4.316;2023-08-17T05:24:24;6.93;;;3.33;;
21786;SDS011;11055;50.870;4.316;2023-08-17T05:26:50;5.43;;;3.58;;
21786;SDS011;11055;50.870;4.316;2023-08-17T05:29:15;7.13;;;3.20;;
21786;SDS011;11055;50.870;4.316;2023-08-17T05:31:41;4.72;;;2.92;;
21786;SDS011;11055;50.870;4.316;2023-08-17T05:34:07;5.35;;;3.38;;
21786;SDS011;11055;50.870;4.316;2023-08-17T05:36:32;5.43;;;2.92;;
21786;SDS011;11055;50.870;4.316;2023-08-17T05:38:58;9.55;;;2.88;;
21786;SDS011;11055;50.870;4.316;2023-08-17T05:41:24;6.55;;;3.10;;
21786;SDS011;11055;50.870;4.316;2023-08-17T05:43:50;11.27;;;4.13;;
21786;SDS011;11055;50.870;4.316;2023-08-17T05:46:15;8.50;;;3.28;;
21786;SDS011;11055;50.870;4.316;2023-08-17T05:48:41;4.68;;;3.17;;
21786;SDS011;11055;50.870;4.316;2023-08-17T05:51:07;6.50;;;3.05;;
21786;SDS011;11055;50.870;4.316;2023-08-17T05:53:32;7.88;;;3.30;;
21786;SDS011;11055;50.870;4.316;2023-08-17T05:55:58;6.68;;;3.40;;
21786;SDS011;11055;50.870;4.316;2023-08-17T05:58:24;7.55;;;3.63;;
21786;SDS011;11055;50.870;4.316;2023-08-17T06:00:49;5.95;;;3.13;;
21786;SDS011;11055;50.870;4.316;2023-08-17T06:03:15;6.55;;;3.45;;
21786;SDS011;11055;50.870;4.316;2023-08-17T06:05:40;6.32;;;3.28;;
21786;SDS011;11055;50.870;4.316;2023-08-17T06:08:06;8.88;;;3.50;;
21786;SDS011;11055;50.870;4.316;2023-08-17T06:10:32;7.10;;;3.60;;
21786;SDS011;11055;50.870;4.316;2023-08-17T06:12:58;5.82;;;3.03;;
21786;SDS011;11055;50.870;4.316;2023-08-17T06:15:23;5.18;;;3.05;;
21786;SDS011;11055;50.870;4.316;2023-08-17T06:17:50;7.57;;;4.25;;
21786;SDS011;11055;50.870;4.316;2023-08-17T06:20:16;8.77;;;3.50;;
21786;SDS011;11055;50.870;4.316;2023-08-17T06:22:43;5.93;;;3.53;;
21786;SDS011;11055;50.870;4.316;2023-08-17T06:25:08;7.45;;;3.30;;
21786;SDS011;11055;50.870;4.316;2023-08-17T06:27:34;7.55;;;3.67;;
21786;SDS011;11055;50.870;4.316;2023-08-17T06:30:01;15.93;;;4.90;;
21786;SDS011;11055;50.870;4.316;2023-08-17T06:32:28;7.60;;;3.58;;
21786;SDS011;11055;50.870;4.316;2023-08-17T06:34:54;5.60;;;3.70;;
21786;SDS011;11055;50.870;4.316;2023-08-17T06:37:20;10.60;;;3.67;;
21786;SDS011;11055;50.870;4.316;2023-08-17T06:39:46;9.60;;;4.00;;
21786;SDS011;11055;50.870;4.316;2023-08-17T06:42:11;7.68;;;3.95;;
21786;SDS011;11055;50.870;4.316;2023-08-17T06:44:37;6.00;;;3.47;;
21786;SDS011;11055;50.870;4.316;2023-08-17T06:47:03;8.40;;;3.58;;
21786;SDS011;11055;50.870;4.316;2023-08-17T06:49:28;5.50;;;3.65;;
21786;SDS011;11055;50.870;4.316;2023-08-17T06:51:55;8.32;;;3.70;;
21786;SDS011;11055;50.870;4.316;2023-08-17T06:54:21;6.15;;;3.53;;
21786;SDS011;11055;50.870;4.316;2023-08-17T06:56:47;7.97;;;3.60;;
21786;SDS011;11055;50.870;4.316;2023-08-17T06:59:12;6.90;;;3.53;;
21786;SDS011;11055;50.870;4.316;2023-08-17T07:01:38;7.88;;;3.67;;
21786;SDS011;11055;50.870;4.316;2023-08-17T07:04:04;7.75;;;3.75;;
21786;SDS011;11055;50.870;4.316;2023-08-17T07:06:29;8.43;;;3.58;;
21786;SDS011;11055;50.870;4.316;2023-08-17T07:08:55;8.30;;;3.88;;
21786;SDS011;11055;50.870;4.316;2023-08-17T07:11:21;7.72;;;3.70;;
21786;SDS011;11055;50.870;4.316;2023-08-17T07:13:47;8.90;;;3.80;;
21786;SDS011;11055;50.870;4.316;2023-08-17T07:16:13;12.00;;;5.95;;
21786;SDS011;11055;50.870;4.316;2023-08-17T07:18:39;7.63;;;4.32;;
21786;SDS011;11055;50.870;4.316;2023-08-17T07:21:04;8.27;;;4.03;;
21786;SDS011;11055;50.870;4.316;2023-08-17T07:23:31;6.93;;;4.40;;
21786;SDS011;11055;50.870;4.316;2023-08-17T07:25:56;6.65;;;3.95;;
21786;SDS011;11055;50.870;4.316;2023-08-17T07:28:22;7.85;;;4.20;;
21786;SDS011;11055;50.870;4.316;2023-08-17T07:30:48;8.30;;;4.40;;
21786;SDS011;11055;50.870;4.316;2023-08-17T07:33:13;9.63;;;4.45;;
21786;SDS011;11055;50.870;4.316;2023-08-17T07:35:39;9.25;;;3.85;;
21786;SDS011;11055;50.870;4.316;2023-08-17T07:38:05;7.05;;;4.22;;
21786;SDS011;11055;50.870;4.316;2023-08-17T07:40:30;11.60;;;4.88;;
21786;SDS011;11055;50.870;4.316;2023-08-17T07:42:56;6.93;;;4.15;;
21786;SDS011;11055;50.870;4.316;2023-08-17T07:45:22;6.30;;;4.50;;
21786;SDS011;11055;50.870;4.316;2023-08-17T07:47:47;15.57;;;5.05;;
21786;SDS011;11055;50.870;4.316;2023-08-17T07:50:13;8.48;;;4.40;;
21786;SDS011;11055;50.870;4.316;2023-08-17T07:52:39;9.05;;;4.75;;
21786;SDS011;11055;50.870;4.316;2023-08-17T07:55:04;11.10;;;4.70;;
21786;SDS011;11055;50.870;4.316;2023-08-17T07:57:30;7.95;;;5.03;;
21786;SDS011;11055;50.870;4.316;2023-08-17T07:59:56;15.50;;;5.80;;
21786;SDS011;11055;50.870;4.316;2023-08-17T08:02:22;13.43;;;5.75;;
21786;SDS011;11055;50.870;4.316;2023-08-17T08:04:47;13.32;;;5.95;;
21786;SDS011;11055;50.870;4.316;2023-08-17T08:07:13;10.57;;;6.13;;
21786;SDS011;11055;50.870;4.316;2023-08-17T08:09:39;9.20;;;5.75;;
21786;SDS011;11055;50.870;4.316;2023-08-17T08:12:04;13.65;;;6.97;;
21786;SDS011;11055;50.870;4.316;2023-08-17T08:14:30;11.82;;;6.22;;
21786;SDS011;11055;50.870;4.316;2023-08-17T08:16:56;11.27;;;6.38;;
21786;SDS011;11055;50.870;4.316;2023-08-17T08:19:22;11.18;;;5.65;;
21786;SDS011;11055;50.870;4.316;2023-08-17T08:21:48;10.35;;;5.50;;
21786;SDS011;11055;50.870;4.316;2023-08-17T08:24:13;10.18;;;5.75;;
21786;SDS011;11055;50.870;4.316;2023-08-17T08:26:39;10.20;;;5.95;;
21786;SDS011;11055;50.870;4.316;2023-08-17T08:29:05;7.25;;;5.55;;
21786;SDS011;11055;50.870;4.316;2023-08-17T08:31:31;9.50;;;5.70;;
21786;SDS011;11055;50.870;4.316;2023-08-17T08:33:57;12.38;;;6.28;;
21786;SDS011;11055;50.870;4.316;2023-08-17T08:36:24;11.27;;;5.75;;
21786;SDS011;11055;50.870;4.316;2023-08-17T08:38:52;9.43;;;5.18;;
21786;SDS011;11055;50.870;4.316;2023-08-17T08:41:18;9.27;;;5.88;;
21786;SDS011;11055;50.870;4.316;2023-08-17T08:43:44;9.30;;;5.43;;
21786;SDS011;11055;50.870;4.316;2023-08-17T08:46:11;10.95;;;6.43;;
21786;SDS011;11055;50.870;4.316;2023-08-17T08:48:40;11.50;;;6.35;;
21786;SDS011;11055;50.870;4.316;2023-08-17T08:51:07;8.25;;;5.55;;
21786;SDS011;11055;50.870;4.316;2023-08-17T08:53:38;13.35;;;5.72;;
21786;SDS011;11055;50.870;4.316;2023-08-17T08:56:10;9.30;;;5.38;;
21786;SDS011;11055;50.870;4.316;2023-08-17T08:58:40;8.13;;;5.00;;
21786;SDS011;11055;50.870;4.316;2023-08-17T09:01:07;9.77;;;5.13;;
21786;SDS011;11055;50.870;4.316;2023-08-17T09:03:36;14.00;;;5.32;;
21786;SDS011;11055;50.870;4.316;2023-08-17T09:06:02;11.73;;;5.75;;
21786;SDS011;11055;50.870;4.316;2023-08-17T09:08:30;9.23;;;5.68;;
21786;SDS011;11055;50.870;4.316;2023-08-17T09:10:56;14.07;;;6.18;;
21786;SDS011;11055;50.870;4.316;2023-08-17T09:13:21;11.32;;;5.95;;
21786;SDS011;11055;50.870;4.316;2023-08-17T09:15:47;9.60;;;6.05;;
21786;SDS011;11055;50.870;4.316;2023-08-17T09:18:13;9.43;;;5.75;;
21786;SDS011;11055;50.870;4.316;2023-08-17T09:20:45;9.95;;;5.30;;
21786;SDS011;11055;50.870;4.316;2023-08-17T09:23:18;8.38;;;5.47;;
21786;SDS011;11055;50.870;4.316;2023-08-17T09:25:46;9.80;;;5.55;;
21786;SDS011;11055;50.870;4.316;2023-08-17T09:28:13;8.50;;;5.43;;
21786;SDS011;11055;50.870;4.316;2023-08-17T09:30:59;10.25;;;5.82;;
21786;SDS011;11055;50.870;4.316;2023-08-17T09:33:26;13.93;;;5.90;;
21786;SDS011;11055;50.870;4.316;2023-08-17T09:35:55;13.60;;;6.05;;
21786;SDS011;11055;50.870;4.316;2023-08-17T09:38:21;11.13;;;6.53;;
21786;SDS011;11055;50.870;4.316;2023-08-17T09:40:47;8.27;;;6.05;;
21786;SDS011;11055;50.870;4.316;2023-08-17T09:43:14;11.20;;;7.63;;
21786;SDS011;11055;50.870;4.316;2023-08-17T09:45:41;14.88;;;6.75;;
21786;SDS011;11055;50.870;4.316;2023-08-17T09:48:16;10.82;;;7.03;;
21786;SDS011;11055;50.870;4.316;2023-08-17T09:50:43;12.80;;;6.93;;
21786;SDS011;11055;50.870;4.316;2023-08-17T09:53:13;13.35;;;6.88;;
21786;SDS011;11055;50.870;4.316;2023-08-17T09:55:40;12.68;;;7.00;;
21786;SDS011;11055;50.870;4.316;2023-08-17T09:58:08;12.40;;;6.75;;
21786;SDS011;11055;50.870;4.316;2023-08-17T10:00:33;10.45;;;5.95;;
21786;SDS011;11055;50.870;4.316;2023-08-17T10:03:01;12.45;;;7.40;;
21786;SDS011;11055;50.870;4.316;2023-08-17T10:05:28;15.15;;;7.30;;
21786;SDS011;11055;50.870;4.316;2023-08-17T10:07:57;10.43;;;7.00;;
21786;SDS011;11055;50.870;4.316;2023-08-17T10:10:27;10.90;;;6.18;;
21786;SDS011;11055;50.870;4.316;2023-08-17T10:13:04;10.32;;;7.03;;
21786;SDS011;11055;50.870;4.316;2023-08-17T10:18:33;9.63;;;7.82;;
21786;SDS011;11055;50.870;4.316;2023-08-17T10:21:05;10.90;;;9.00;;
21786;SDS011;11055;50.870;4.316;2023-08-17T10:23:37;15.40;;;9.75;;
21786;SDS011;11055;50.870;4.316;2023-08-17T10:26:03;14.57;;;9.73;;
21786;SDS011;11055;50.870;4.316;2023-08-17T10:28:33;10.65;;;8.60;;
21786;SDS011;11055;50.870;4.316;2023-08-17T10:30:59;13.23;;;8.27;;
21786;SDS011;11055;50.870;4.316;2023-08-17T10:33:25;10.07;;;8.05;;
21786;SDS011;11055;50.870;4.316;2023-08-17T10:35:52;11.23;;;7.75;;
21786;SDS011;11055;50.870;4.316;2023-08-17T10:38:19;11.30;;;8.32;;
21786;SDS011;11055;50.870;4.316;2023-08-17T10:40:44;11.07;;;8.10;;
21786;SDS011;11055;50.870;4.316;2023-08-17T10:43:32;11.15;;;8.75;;
21786;SDS011;11055;50.870;4.316;2023-08-17T10:46:12;11.20;;;8.52;;
21786;SDS011;11055;50.870;4.316;2023-08-17T10:48:42;10.60;;;7.65;;
21786;SDS011;11055;50.870;4.316;2023-08-17T10:51:08;10.57;;;7.75;;
21786;SDS011;11055;50.870;4.316;2023-08-17T10:53:38;13.38;;;8.25;;
21786;SDS011;11055;50.870;4.316;2023-08-17T10:56:09;12.70;;;7.45;;
21786;SDS011;11055;50.870;4.316;2023-08-17T10:58:37;13.50;;;9.27;;
21786;SDS011;11055;50.870;4.316;2023-08-17T11:01:03;12.35;;;8.75;;
21786;SDS011;11055;50.870;4.316;2023-08-17T11:03:30;12.50;;;8.85;;
21786;SDS011;11055;50.870;4.316;2023-08-17T11:05:56;10.23;;;8.18;;
21786;SDS011;11055;50.870;4.316;2023-08-17T11:11:05;10.82;;;7.68;;
21786;SDS011;11055;50.870;4.316;2023-08-17T11:13:32;11.05;;;7.22;;
21786;SDS011;11055;50.870;4.316;2023-08-17T11:16:03;10.23;;;7.85;;
21786;SDS011;11055;50.870;4.316;2023-08-17T11:18:30;10.95;;;8.43;;
21786;SDS011;11055;50.870;4.316;2023-08-17T11:20:56;10.13;;;9.13;;
21786;SDS011;11055;50.870;4.316;2023-08-17T11:23:22;8.63;;;7.72;;
21786;SDS011;11055;50.870;4.316;2023-08-17T11:25:49;11.18;;;8.15;;
21786;SDS011;11055;50.870;4.316;2023-08-17T11:28:17;10.38;;;7.90;;
21786;SDS011;11055;50.870;4.316;2023-08-17T11:30:42;11.18;;;8.13;;
21786;SDS011;11055;50.870;4.316;2023-08-17T11:33:08;11.23;;;8.38;;
21786;SDS011;11055;50.870;4.316;2023-08-17T11:35:35;8.93;;;7.80;;
21786;SDS011;11055;50.870;4.316;2023-08-17T11:38:01;8.77;;;7.35;;
21786;SDS011;11055;50.870;4.316;2023-08-17T11:40:28;10.70;;;7.38;;
21786;SDS011;11055;50.870;4.316;2023-08-17T11:42:55;11.35;;;7.18;;
21786;SDS011;11055;50.870;4.316;2023-08-17T11:45:20;9.93;;;7.13;;
21786;SDS011;11055;50.870;4.316;2023-08-17T11:47:46;10.00;;;7.30;;
21786;SDS011;11055;50.870;4.316;2023-08-17T11:50:13;10.85;;;7.95;;
21786;SDS011;11055;50.870;4.316;2023-08-17T11:52:39;11.35;;;7.00;;
21786;SDS011;11055;50.870;4.316;2023-08-17T11:55:06;8.52;;;7.68;;
21786;SDS011;11055;50.870;4.316;2023-08-17T11:57:34;12.98;;;8.00;;
21786;SDS011;11055;50.870;4.316;2023-08-17T12:00:01;11.57;;;7.88;;
21786;SDS011;11055;50.870;4.316;2023-08-17T12:02:29;9.70;;;7.28;;
21786;SDS011;11055;50.870;4.316;2023-08-17T12:04:55;11.25;;;7.65;;
21786;SDS011;11055;50.870;4.316;2023-08-17T12:07:25;13.60;;;7.93;;
21786;SDS011;11055;50.870;4.316;2023-08-17T12:09:50;12.13;;;7.70;;
21786;SDS011;11055;50.870;4.316;2023-08-17T12:12:18;10.77;;;8.45;;
21786;SDS011;11055;50.870;4.316;2023-08-17T12:14:46;13.75;;;8.32;;
21786;SDS011;11055;50.870;4.316;2023-08-17T12:17:18;10.68;;;7.43;;
21786;SDS011;11055;50.870;4.316;2023-08-17T12:19:44;14.30;;;8.60;;
21786;SDS011;11055;50.870;4.316;2023-08-17T12:22:14;12.65;;;10.73;;
21786;SDS011;11055;50.870;4.316;2023-08-17T12:24:41;12.48;;;8.18;;
21786;SDS011;11055;50.870;4.316;2023-08-17T12:27:07;14.35;;;9.35;;
21786;SDS011;11055;50.870;4.316;2023-08-17T12:29:33;12.27;;;9.63;;
21786;SDS011;11055;50.870;4.316;2023-08-17T12:31:59;14.02;;;10.07;;
21786;SDS011;11055;50.870;4.316;2023-08-17T12:34:27;12.25;;;9.85;;
21786;SDS011;11055;50.870;4.316;2023-08-17T12:36:53;15.45;;;9.70;;
21786;SDS011;11055;50.870;4.316;2023-08-17T12:39:18;14.35;;;9.88;;
21786;SDS011;11055;50.870;4.316;2023-08-17T12:41:44;13.13;;;9.38;;
21786;SDS011;11055;50.870;4.316;2023-08-17T12:44:10;14.13;;;9.32;;
21786;SDS011;11055;50.870;4.316;2023-08-17T12:46:39;15.23;;;10.23;;
21786;SDS011;11055;50.870;4.316;2023-08-17T12:49:05;14.10;;;10.90;;
21786;SDS011;11055;50.870;4.316;2023-08-17T12:51:31;15.98;;;11.60;;
21786;SDS011;11055;50.870;4.316;2023-08-17T12:53:57;17.02;;;11.40;;
21786;SDS011;11055;50.870;4.316;2023-08-17T12:56:22;15.88;;;11.73;;
21786;SDS011;11055;50.870;4.316;2023-08-17T12:58:48;16.70;;;11.00;;
21786;SDS011;11055;50.870;4.316;2023-08-17T13:01:14;18.27;;;11.70;;
21786;SDS011;11055;50.870;4.316;2023-08-17T13:03:39;15.70;;;11.02;;
21786;SDS011;11055;50.870;4.316;2023-08-17T13:06:05;20.95;;;13.68;;
21786;SDS011;11055;50.870;4.316;2023-08-17T13:08:32;16.38;;;12.70;;
21786;SDS011;11055;50.870;4.316;2023-08-17T13:10:57;18.88;;;12.25;;
21786;SDS011;11055;50.870;4.316;2023-08-17T13:13:23;13.73;;;10.73;;
21786;SDS011;11055;50.870;4.316;2023-08-17T13:15:49;16.65;;;11.60;;
21786;SDS011;11055;50.870;4.316;2023-08-17T13:18:14;14.90;;;12.32;;
21786;SDS011;11055;50.870;4.316;2023-08-17T13:20:40;19.85;;;12.60;;
21786;SDS011;11055;50.870;4.316;2023-08-17T13:23:06;16.75;;;12.48;;
21786;SDS011;11055;50.870;4.316;2023-08-17T13:25:32;20.25;;;12.25;;
21786;SDS011;11055;50.870;4.316;2023-08-17T13:27:57;18.35;;;12.60;;
21786;SDS011;11055;50.870;4.316;2023-08-17T13:30:23;20.17;;;12.80;;
21786;SDS011;11055;50.870;4.316;2023-08-17T13:32:49;19.70;;;13.45;;
21786;SDS011;11055;50.870;4.316;2023-08-17T13:35:15;21.27;;;13.25;;
21786;SDS011;11055;50.870;4.316;2023-08-17T13:37:41;15.40;;;12.57;;
21786;SDS011;11055;50.870;4.316;2023-08-17T13:40:07;18.20;;;14.88;;
21786;SDS011;11055;50.870;4.316;2023-08-17T13:42:33;20.20;;;15.20;;
21786;SDS011;11055;50.870;4.316;2023-08-17T13:44:59;19.95;;;14.43;;
21786;SDS011;11055;50.870;4.316;2023-08-17T13:47:25;18.90;;;14.82;;
21786;SDS011;11055;50.870;4.316;2023-08-17T13:49:51;21.65;;;15.43;;
21786;SDS011;11055;50.870;4.316;2023-08-17T13:52:17;19.85;;;16.08;;
21786;SDS011;11055;50.870;4.316;2023-08-17T13:54:42;18.77;;;14.45;;
21786;SDS011;11055;50.870;4.316;2023-08-17T13:57:08;19.58;;;13.95;;
21786;SDS011;11055;50.870;4.316;2023-08-17T13:59:34;17.20;;;14.30;;
21786;SDS011;11055;50.870;4.316;2023-08-17T14:01:59;21.50;;;15.02;;
21786;SDS011;11055;50.870;4.316;2023-08-17T14:04:25;21.75;;;14.85;;
21786;SDS011;11055;50.870;4.316;2023-08-17T14:06:51;18.63;;;14.20;;
21786;SDS011;11055;50.870;4.316;2023-08-17T14:09:17;17.42;;;14.52;;
21786;SDS011;11055;50.870;4.316;2023-08-17T14:11:43;21.50;;;15.80;;
21786;SDS011;11055;50.870;4.316;2023-08-17T14:14:08;17.20;;;15.27;;
21786;SDS011;11055;50.870;4.316;2023-08-17T14:16:34;19.92;;;14.25;;
21786;SDS011;11055;50.870;4.316;2023-08-17T14:19:00;16.95;;;13.60;;
21786;SDS011;11055;50.870;4.316;2023-08-17T14:21:26;19.33;;;14.18;;
21786;SDS011;11055;50.870;4.316;2023-08-17T14:23:52;29.45;;;17.13;;
21786;SDS011;11055;50.870;4.316;2023-08-17T14:26:17;24.10;;;15.40;;
21786;SDS011;11055;50.870;4.316;2023-08-17T14:28:43;17.25;;;13.95;;
21786;SDS011;11055;50.870;4.316;2023-08-17T14:31:09;17.70;;;13.32;;
21786;SDS011;11055;50.870;4.316;2023-08-17T14:33:36;17.08;;;13.85;;
21786;SDS011;11055;50.870;4.316;2023-08-17T14:36:02;16.92;;;13.55;;
21786;SDS011;11055;50.870;4.316;2023-08-17T14:38:28;17.90;;;13.60;;
21786;SDS011;11055;50.870;4.316;2023-08-17T14:40:54;18.13;;;13.07;;
21786;SDS011;11055;50.870;4.316;2023-08-17T14:43:19;16.98;;;11.80;;
21786;SDS011;11055;50.870;4.316;2023-08-17T14:45:45;14.90;;;12.38;;
21786;SDS011;11055;50.870;4.316;2023-08-17T14:48:11;17.33;;;12.25;;
21786;SDS011;11055;50.870;4.316;2023-08-17T14:50:37;14.57;;;12.77;;
21786;SDS011;11055;50.870;4.316;2023-08-17T14:53:03;15.05;;;11.43;;